createdAt,value
2023-05-14T00:01:46.522Z,94645.25
2023-05-14T00:04:13.419Z,94640.69
2023-05-14T00:06:40.187Z,94643.53
2023-05-14T00:09:06.990Z,94638.34
2023-05-14T00:11:33.740Z,94638.97
2023-05-14T00:14:00.701Z,94630.66
2023-05-14T00:16:27.469Z,94621.66
2023-05-14T00:18:54.503Z,94630.41
2023-05-14T00:21:21.537Z,94614.44
2023-05-14T00:23:48.227Z,94612.34
2023-05-14T00:26:14.997Z,94617.88
2023-05-14T00:28:44.444Z,94604.91
2023-05-14T00:31:11.303Z,94602.03
2023-05-14T00:33:38.263Z,94611.63
2023-05-14T00:36:05.237Z,94617.34
2023-05-14T00:38:32.130Z,94613.56
2023-05-14T00:40:58.849Z,94611.97
2023-05-14T00:43:26.036Z,94609.44
2023-05-14T00:45:54.714Z,94616.72
2023-05-14T00:48:23.483Z,94613.13
2023-05-14T00:50:51.221Z,94618.13
2023-05-14T00:53:21.470Z,94622.97
2023-05-14T00:55:50.540Z,94621.91
2023-05-14T00:58:18.130Z,94605.38
2023-05-14T01:00:45.291Z,94617.34
2023-05-14T01:03:12.131Z,94610.59
2023-05-14T01:05:38.866Z,94607.59
2023-05-14T01:08:12.928Z,94597.59
2023-05-14T01:10:51.356Z,94602.09
2023-05-14T01:13:30.273Z,94596.50
2023-05-14T01:16:00.314Z,94589.78
2023-05-14T01:18:28.397Z,94592.50
2023-05-14T01:20:55.396Z,94589.63
2023-05-14T01:23:22.944Z,94589.72
2023-05-14T01:25:50.346Z,94593.31
2023-05-14T01:28:19.583Z,94594.97
2023-05-14T01:30:50.606Z,94595.00
2023-05-14T01:33:18.907Z,94592.88
2023-05-14T01:35:46.394Z,94594.22
2023-05-14T01:38:17.449Z,94582.06
2023-05-14T01:40:46.393Z,94580.09
2023-05-14T01:43:13.899Z,94581.81
2023-05-14T01:45:41.664Z,94572.41
2023-05-14T01:48:08.456Z,94576.00
2023-05-14T01:50:35.575Z,94575.31
2023-05-14T01:53:02.443Z,94568.53
2023-05-14T01:55:29.247Z,94560.03
2023-05-14T01:57:56.074Z,94570.59
2023-05-14T02:00:25.446Z,94572.94
2023-05-14T02:02:52.832Z,94566.66
2023-05-14T02:05:19.678Z,94567.47
2023-05-14T02:07:46.703Z,94572.13
2023-05-14T02:10:13.421Z,94560.09
2023-05-14T02:12:40.723Z,94563.72
2023-05-14T02:15:09.324Z,94570.06
2023-05-14T02:17:36.506Z,94567.69
2023-05-14T02:20:04.194Z,94561.34
2023-05-14T02:22:31.213Z,94562.75
2023-05-14T02:24:57.935Z,94563.28
2023-05-14T02:27:25.032Z,94567.00
2023-05-14T02:29:53.131Z,94566.63
2023-05-14T02:32:19.946Z,94562.25
2023-05-14T02:34:46.919Z,94555.50
2023-05-14T02:37:13.821Z,94559.63
2023-05-14T02:39:40.823Z,94565.03
2023-05-14T02:42:07.789Z,94570.16
2023-05-14T02:44:34.625Z,94560.22
2023-05-14T02:47:01.411Z,94560.78
2023-05-14T02:49:28.159Z,94561.03
2023-05-14T02:51:54.949Z,94556.44
2023-05-14T02:54:22.428Z,94551.94
2023-05-14T02:56:49.181Z,94547.56
2023-05-14T02:59:16.092Z,94549.75
2023-05-14T03:01:43.409Z,94556.78
2023-05-14T03:04:11.032Z,94552.69
2023-05-14T03:06:37.786Z,94548.00
2023-05-14T03:09:04.529Z,94552.38
2023-05-14T03:11:31.381Z,94549.41
2023-05-14T03:13:58.111Z,94543.47
2023-05-14T03:16:24.960Z,94545.22
2023-05-14T03:18:51.763Z,94537.13
2023-05-14T03:21:18.784Z,94542.59
2023-05-14T03:23:45.536Z,94536.31
2023-05-14T03:26:12.267Z,94540.75
2023-05-14T03:28:38.970Z,94531.19
2023-05-14T03:31:05.868Z,94538.00
2023-05-14T03:33:32.796Z,94537.34
2023-05-14T03:35:59.570Z,94541.59
2023-05-14T03:38:26.412Z,94540.56
2023-05-14T03:40:53.188Z,94539.13
2023-05-14T03:43:19.894Z,94530.16
2023-05-14T03:45:52.970Z,94542.66
2023-05-14T03:48:20.566Z,94536.78
2023-05-14T03:50:47.958Z,94535.34
2023-05-14T03:53:14.779Z,94544.16
2023-05-14T03:55:41.563Z,94538.91
2023-05-14T03:58:14.233Z,94540.34
2023-05-14T04:00:42.733Z,94535.50
2023-05-14T04:03:11.409Z,94541.78
2023-05-14T04:05:38.481Z,94541.59
2023-05-14T04:08:05.897Z,94546.09
2023-05-14T04:10:32.926Z,94548.53
2023-05-14T04:13:00.415Z,94538.38
2023-05-14T04:15:31.708Z,94544.13
2023-05-14T04:17:58.550Z,94543.03
2023-05-14T04:20:25.628Z,94547.22
2023-05-14T04:22:53.278Z,94549.09
2023-05-14T04:25:20.109Z,94549.50
2023-05-14T04:27:46.915Z,94548.81
2023-05-14T04:30:13.787Z,94545.69
2023-05-14T04:32:40.946Z,94541.25
2023-05-14T04:35:10.198Z,94544.13
2023-05-14T04:37:37.590Z,94539.69
2023-05-14T04:40:05.837Z,94546.50
2023-05-14T04:42:32.593Z,94535.75
2023-05-14T04:44:59.323Z,94535.69
2023-05-14T04:47:26.751Z,94541.31
2023-05-14T04:49:53.942Z,94554.38
2023-05-14T04:52:20.883Z,94561.19
2023-05-14T04:54:47.688Z,94557.19
2023-05-14T04:57:14.586Z,94562.41
2023-05-14T04:59:41.314Z,94559.31
2023-05-14T05:02:08.613Z,94565.84
2023-05-14T05:04:35.326Z,94570.91
2023-05-14T05:07:02.240Z,94563.50
2023-05-14T05:09:28.987Z,94566.28
2023-05-14T05:11:55.991Z,94571.84
2023-05-14T05:14:22.726Z,94560.28
2023-05-14T05:16:51.500Z,94565.03
2023-05-14T05:19:19.734Z,94562.09
2023-05-14T05:21:49.533Z,94562.47
2023-05-14T05:24:16.300Z,94564.72
2023-05-14T05:26:43.034Z,94562.31
2023-05-14T05:29:10.034Z,94561.94
2023-05-14T05:31:37.016Z,94563.97
2023-05-14T05:34:04.402Z,94556.34
2023-05-14T05:36:31.660Z,94562.97
2023-05-14T05:38:58.393Z,94561.66
2023-05-14T05:41:26.555Z,94570.72
2023-05-14T05:43:53.291Z,94562.78
2023-05-14T05:46:20.015Z,94566.81
2023-05-14T05:48:46.691Z,94570.13
2023-05-14T05:51:13.491Z,94557.31
2023-05-14T05:53:40.852Z,94562.34
2023-05-14T05:56:08.074Z,94560.47
2023-05-14T05:58:34.806Z,94562.25
2023-05-14T06:01:01.532Z,94565.25
2023-05-14T06:03:28.423Z,94560.47
2023-05-14T06:05:55.561Z,94568.50
2023-05-14T06:08:22.306Z,94555.91
2023-05-14T06:10:49.248Z,94568.66
2023-05-14T06:13:15.988Z,94567.56
2023-05-14T06:15:42.988Z,94566.66
2023-05-14T06:18:09.733Z,94570.13
2023-05-14T06:20:36.502Z,94576.03
2023-05-14T06:23:03.259Z,94569.88
2023-05-14T06:25:29.952Z,94564.41
2023-05-14T06:27:56.877Z,94562.31
2023-05-14T06:30:23.786Z,94567.72
2023-05-14T06:32:51.818Z,94566.53
2023-05-14T06:35:19.290Z,94563.28
2023-05-14T06:37:45.997Z,94556.63
2023-05-14T06:40:15.775Z,94562.53
2023-05-14T06:42:42.939Z,94552.91
2023-05-14T06:45:10.658Z,94552.78
2023-05-14T06:47:37.473Z,94545.00
2023-05-14T06:50:04.620Z,94545.28
2023-05-14T06:52:31.350Z,94542.53
2023-05-14T06:54:58.373Z,94541.00
2023-05-14T06:57:25.187Z,94542.22
2023-05-14T06:59:52.155Z,94540.03
2023-05-14T07:02:18.933Z,94530.50
2023-05-14T07:04:46.221Z,94528.41
2023-05-14T07:07:15.511Z,94534.16
2023-05-14T07:09:42.363Z,94523.09
2023-05-14T07:12:09.358Z,94524.19
2023-05-14T07:14:36.200Z,94512.75
2023-05-14T07:17:03.011Z,94521.41
2023-05-14T07:19:30.224Z,94528.59
2023-05-14T07:21:58.181Z,94522.81
2023-05-14T07:24:25.282Z,94513.22
2023-05-14T07:26:52.273Z,94509.94
2023-05-14T07:29:18.985Z,94516.34
2023-05-14T07:31:45.731Z,94519.91
2023-05-14T07:34:13.165Z,94519.28
2023-05-14T07:36:41.227Z,94517.13
2023-05-14T07:39:09.132Z,94522.91
2023-05-14T07:41:35.871Z,94521.47
2023-05-14T07:44:02.731Z,94527.44
2023-05-14T07:46:29.387Z,94531.19
2023-05-14T07:48:57.485Z,94532.09
2023-05-14T07:51:24.375Z,94531.94
2023-05-14T07:53:51.319Z,94533.59
2023-05-14T07:56:18.047Z,94529.72
2023-05-14T07:58:44.801Z,94535.47
2023-05-14T08:01:12.855Z,94528.09
2023-05-14T08:03:40.830Z,94526.28
2023-05-14T08:06:07.636Z,94533.03
2023-05-14T08:08:34.485Z,94534.81
2023-05-14T08:11:01.295Z,94525.63
2023-05-14T08:13:28.057Z,94527.34
2023-05-14T08:15:56.482Z,94531.19
2023-05-14T08:18:23.198Z,94527.06
2023-05-14T08:20:50.621Z,94521.16
2023-05-14T08:23:17.649Z,94520.88
2023-05-14T08:25:44.420Z,94518.41
2023-05-14T08:28:11.333Z,94518.91
2023-05-14T08:30:38.054Z,94519.56
2023-05-14T08:33:05.129Z,94520.47
2023-05-14T08:35:31.983Z,94514.88
2023-05-14T08:37:59.035Z,94503.78
2023-05-14T08:40:27.164Z,94513.41
2023-05-14T08:42:56.100Z,94508.81
2023-05-14T08:45:31.550Z,94503.66
2023-05-14T08:47:59.424Z,94506.47
2023-05-14T08:50:28.482Z,94510.59
2023-05-14T08:52:56.283Z,94508.63
2023-05-14T08:55:23.609Z,94509.47
2023-05-14T08:57:50.604Z,94514.63
2023-05-14T09:00:18.665Z,94508.75
2023-05-14T09:02:47.604Z,94502.63
2023-05-14T09:05:15.262Z,94505.34
2023-05-14T09:07:42.577Z,94512.31
2023-05-14T09:10:10.259Z,94502.22
2023-05-14T09:12:37.158Z,94500.34
2023-05-14T09:15:04.966Z,94512.28
2023-05-14T09:17:33.534Z,94515.22
2023-05-14T09:20:00.610Z,94516.84
2023-05-14T09:22:32.113Z,94512.00
2023-05-14T09:25:12.388Z,94513.59
2023-05-14T09:27:39.366Z,94510.13
2023-05-14T09:30:11.600Z,94502.81
2023-05-14T09:32:46.375Z,94498.09
2023-05-14T09:35:18.074Z,94504.44
2023-05-14T09:37:47.068Z,94517.16
2023-05-14T09:40:15.232Z,94500.91
2023-05-14T09:42:43.009Z,94502.06
2023-05-14T09:45:10.700Z,94506.94
2023-05-14T09:47:38.685Z,94504.38
2023-05-14T09:50:06.675Z,94507.31
2023-05-14T09:52:33.606Z,94503.56
2023-05-14T09:55:01.444Z,94492.63
2023-05-14T09:57:28.269Z,94507.31
2023-05-14T09:59:55.688Z,94499.97
2023-05-14T10:02:30.525Z,94504.44
2023-05-14T10:07:33.662Z,94503.00
2023-05-14T10:10:03.741Z,94491.59
2023-05-14T10:12:38.395Z,94499.66
2023-05-14T10:15:15.361Z,94503.88
2023-05-14T10:17:47.465Z,94494.25
2023-05-14T10:20:17.288Z,94507.59
2023-05-14T10:22:44.336Z,94500.09
2023-05-14T10:25:12.131Z,94501.34
2023-05-14T10:27:39.913Z,94504.03
2023-05-14T10:30:15.822Z,94501.19
2023-05-14T10:32:44.619Z,94501.50
2023-05-14T10:35:22.979Z,94496.66
2023-05-14T10:37:52.088Z,94510.03
2023-05-14T10:40:19.400Z,94497.25
2023-05-14T10:42:47.009Z,94501.31
2023-05-14T10:45:15.764Z,94490.13
2023-05-14T10:47:44.755Z,94484.06
2023-05-14T10:50:14.421Z,94470.63
2023-05-14T10:52:43.644Z,94469.56
2023-05-14T10:55:14.735Z,94461.81
2023-05-14T10:57:43.510Z,94468.91
2023-05-14T11:00:11.740Z,94484.03
2023-05-14T11:02:40.648Z,94477.06
2023-05-14T11:05:17.983Z,94477.72
2023-05-14T11:07:47.226Z,94470.13
2023-05-14T11:10:18.848Z,94476.75
2023-05-14T11:12:50.054Z,94476.78
2023-05-14T11:15:21.793Z,94454.16
2023-05-14T11:17:49.758Z,94453.59
2023-05-14T11:20:18.080Z,94456.34
2023-05-14T11:22:47.105Z,94454.00
2023-05-14T11:25:15.265Z,94447.59
2023-05-14T11:27:43.898Z,94448.09
2023-05-14T11:30:19.519Z,94446.63
2023-05-14T11:32:48.641Z,94447.28
2023-05-14T11:35:16.850Z,94444.88
2023-05-14T11:37:52.768Z,94448.59
2023-05-14T11:40:20.035Z,94432.09
2023-05-14T11:42:46.956Z,94412.59
2023-05-14T11:45:27.309Z,94400.69
2023-05-14T11:47:57.924Z,94405.81
2023-05-14T11:50:25.249Z,94420.59
2023-05-14T11:52:58.026Z,94424.75
2023-05-14T11:55:25.015Z,94399.84
2023-05-14T11:57:52.240Z,94413.59
2023-05-14T12:00:22.317Z,94417.25
2023-05-14T12:02:50.071Z,94383.69
2023-05-14T12:05:17.452Z,94394.66
2023-05-14T12:07:46.121Z,94371.69
2023-05-14T12:10:14.419Z,94416.75
2023-05-14T12:12:46.282Z,94396.19
2023-05-14T12:15:14.576Z,94422.69
2023-05-14T12:17:41.618Z,94361.13
2023-05-14T12:20:11.120Z,94383.44
2023-05-14T12:22:38.838Z,94362.50
2023-05-14T12:25:13.766Z,94357.66
2023-05-14T12:27:41.189Z,94344.81
2023-05-14T12:32:41.405Z,94382.84
2023-05-14T12:35:09.526Z,94370.63
2023-05-14T12:37:37.695Z,94362.97
2023-05-14T12:40:11.610Z,94338.91
2023-05-14T12:42:38.815Z,94373.13
2023-05-14T12:45:08.174Z,94345.84
2023-05-14T12:47:36.454Z,94368.38
2023-05-14T12:50:03.967Z,94357.28
2023-05-14T12:55:01.543Z,94377.00
2023-05-14T12:57:30.296Z,94355.25
2023-05-14T12:59:58.256Z,94346.13
2023-05-14T13:02:25.593Z,94333.53
2023-05-14T13:04:52.370Z,94365.44
2023-05-14T13:07:19.518Z,94339.06
2023-05-14T13:09:46.441Z,94358.44
2023-05-14T13:12:13.642Z,94344.25
2023-05-14T13:14:40.653Z,94299.91
2023-05-14T13:17:08.283Z,94307.97
2023-05-14T13:19:35.188Z,94351.63
2023-05-14T13:22:02.076Z,94333.75
2023-05-14T13:24:30.460Z,94352.56
2023-05-14T13:26:57.249Z,94361.91
2023-05-14T13:29:25.983Z,94337.88
2023-05-14T13:31:53.294Z,94291.69
2023-05-14T13:34:20.176Z,94341.09
2023-05-14T13:36:47.460Z,94317.53
2023-05-14T13:39:17.802Z,94279.72
2023-05-14T13:41:45.686Z,94306.97
2023-05-14T13:44:12.519Z,94299.88
2023-05-14T13:46:39.794Z,94327.31
2023-05-14T13:49:06.680Z,94272.72
2023-05-14T13:51:33.715Z,94304.41
2023-05-14T13:54:01.002Z,94312.75
2023-05-14T13:56:27.958Z,94312.84
2023-05-14T13:58:56.373Z,94279.63
2023-05-14T14:01:23.716Z,94331.69
2023-05-14T14:03:50.539Z,94328.00
2023-05-14T14:06:17.672Z,94305.44
2023-05-14T14:08:45.828Z,94319.50
2023-05-14T14:11:14.277Z,94267.22
2023-05-14T14:13:42.056Z,94290.50
2023-05-14T14:16:10.775Z,94329.41
2023-05-14T14:18:37.576Z,94315.44
2023-05-14T14:21:04.847Z,94316.38
2023-05-14T14:23:31.632Z,94298.69
2023-05-14T14:25:58.410Z,94281.91
2023-05-14T14:28:26.452Z,94308.84
2023-05-14T14:30:53.376Z,94232.72
2023-05-14T14:33:20.676Z,94234.22
2023-05-14T14:35:47.852Z,94274.03
2023-05-14T14:38:16.181Z,94248.16
2023-05-14T14:40:43.000Z,94266.75
2023-05-14T14:43:10.315Z,94243.84
2023-05-14T14:45:37.150Z,94250.56
2023-05-14T14:48:31.822Z,94280.44
2023-05-14T14:51:00.282Z,94257.63
2023-05-14T14:53:27.604Z,94275.59
2023-05-14T14:55:54.433Z,94264.53
2023-05-14T14:58:21.498Z,94254.78
2023-05-14T15:00:51.281Z,94280.81
2023-05-14T15:03:18.943Z,94288.00
2023-05-14T15:05:47.170Z,94236.56
2023-05-14T15:08:14.770Z,94275.03
2023-05-14T15:10:42.017Z,94303.59
2023-05-14T15:13:09.752Z,94265.81
2023-05-14T15:15:37.521Z,94281.13
2023-05-14T15:18:05.097Z,94291.78
2023-05-14T15:20:32.200Z,94262.31
2023-05-14T15:22:58.966Z,94259.34
2023-05-14T15:25:26.982Z,94277.53
2023-05-14T15:27:53.905Z,94287.94
2023-05-14T15:30:21.144Z,94304.66
2023-05-14T15:32:48.075Z,94296.09
2023-05-14T15:35:15.133Z,94278.19
2023-05-14T15:37:44.295Z,94275.63
2023-05-14T15:40:12.530Z,94306.88
2023-05-14T15:42:42.185Z,94313.75
2023-05-14T15:45:10.981Z,94296.75
2023-05-14T15:47:38.118Z,94278.81
2023-05-14T15:50:05.796Z,94190.22
2023-05-14T15:52:32.593Z,94224.56
2023-05-14T15:55:00.923Z,94203.47
2023-05-14T15:57:27.744Z,94219.38
2023-05-14T15:59:54.924Z,94235.56
2023-05-14T16:02:21.711Z,94260.69
2023-05-14T16:04:49.745Z,94264.31
2023-05-14T16:07:18.018Z,94276.34
2023-05-14T16:09:46.401Z,94283.19
2023-05-14T16:12:14.416Z,94308.28
2023-05-14T16:14:42.174Z,94307.06
2023-05-14T16:17:09.337Z,94306.06
2023-05-14T16:19:36.123Z,94315.75
2023-05-14T16:22:03.157Z,94312.13
2023-05-14T16:24:30.840Z,94311.19
2023-05-14T16:26:58.880Z,94304.13
2023-05-14T16:29:25.705Z,94313.78
2023-05-14T16:31:52.725Z,94306.47
2023-05-14T16:34:19.749Z,94306.34
2023-05-14T16:36:48.133Z,94297.13
2023-05-14T16:39:14.922Z,94304.00
2023-05-14T16:41:42.028Z,94296.13
2023-05-14T16:44:08.854Z,94295.75
2023-05-14T16:46:35.790Z,94297.38
2023-05-14T16:49:03.187Z,94303.22
2023-05-14T16:51:30.066Z,94321.56
2023-05-14T16:53:57.191Z,94311.50
2023-05-14T16:56:24.149Z,94313.72
2023-05-14T16:58:51.058Z,94306.81
2023-05-14T17:01:18.932Z,94310.16
2023-05-14T17:03:48.173Z,94311.16
2023-05-14T17:06:15.145Z,94321.25
2023-05-14T17:08:42.325Z,94307.63
2023-05-14T17:11:09.212Z,94305.34
2023-05-14T17:13:36.094Z,94312.47
2023-05-14T17:16:03.591Z,94319.78
2023-05-14T17:18:30.643Z,94306.41
2023-05-14T17:20:58.696Z,94310.09
2023-05-14T17:23:25.493Z,94308.59
2023-05-14T17:28:19.831Z,94310.03
2023-05-14T17:30:47.089Z,94307.38
2023-05-14T17:33:14.863Z,94298.97
2023-05-14T17:35:43.836Z,94307.66
2023-05-14T17:38:10.558Z,94305.72
2023-05-14T17:40:37.510Z,94303.78
2023-05-14T17:43:04.545Z,94302.91
2023-05-14T17:45:42.576Z,94305.94
2023-05-14T17:48:20.083Z,94304.09
2023-05-14T17:50:46.954Z,94310.25
2023-05-14T17:53:14.394Z,94310.34
2023-05-14T17:55:43.786Z,94298.75
2023-05-14T17:58:13.439Z,94305.19
2023-05-14T18:00:40.666Z,94299.53
2023-05-14T18:03:10.638Z,94302.13
2023-05-14T18:05:37.511Z,94305.13
2023-05-14T18:08:04.730Z,94300.78
2023-05-14T18:10:33.441Z,94297.28
2023-05-14T18:13:00.286Z,94306.44
2023-05-14T18:15:27.688Z,94298.38
2023-05-14T18:17:54.609Z,94302.56
2023-05-14T18:20:21.990Z,94294.06
2023-05-14T18:22:51.369Z,94298.19
2023-05-14T18:25:19.405Z,94292.34
2023-05-14T18:27:47.470Z,94290.22
2023-05-14T18:30:15.992Z,94288.19
2023-05-14T18:32:44.606Z,94289.84
2023-05-14T18:35:12.591Z,94303.22
2023-05-14T18:37:39.583Z,94294.56
2023-05-14T18:40:07.513Z,94300.50
2023-05-14T18:42:35.101Z,94293.78
2023-05-14T18:45:03.603Z,94293.81
2023-05-14T18:47:30.532Z,94304.44
2023-05-14T18:49:59.756Z,94299.47
2023-05-14T18:52:27.025Z,94297.91
2023-05-14T18:54:57.455Z,94310.47
2023-05-14T18:57:27.498Z,94302.41
2023-05-14T18:59:54.259Z,94305.84
2023-05-14T19:02:21.340Z,94308.19
2023-05-14T19:04:52.778Z,94306.78
2023-05-14T19:07:21.456Z,94311.03
2023-05-14T19:09:49.889Z,94321.19
2023-05-14T19:12:16.712Z,94324.34
2023-05-14T19:14:43.907Z,94324.38
2023-05-14T19:17:11.094Z,94326.84
2023-05-14T19:19:39.340Z,94322.59
2023-05-14T19:22:07.125Z,94328.94
2023-05-14T19:24:36.329Z,94329.41
2023-05-14T19:27:03.830Z,94320.13
2023-05-14T19:29:33.057Z,94326.72
2023-05-14T19:32:00.724Z,94324.69
2023-05-14T19:34:27.901Z,94321.75
2023-05-14T19:36:54.869Z,94336.38
2023-05-14T19:39:22.022Z,94331.41
2023-05-14T19:41:50.399Z,94330.34
2023-05-14T19:44:17.433Z,94336.50
2023-05-14T19:46:46.300Z,94336.91
2023-05-14T19:49:13.596Z,94328.41
2023-05-14T19:51:40.578Z,94334.88
2023-05-14T19:54:08.089Z,94341.41
2023-05-14T19:56:36.254Z,94330.25
2023-05-14T19:59:07.294Z,94329.88
2023-05-14T20:01:35.870Z,94324.91
2023-05-14T20:04:04.017Z,94331.69
2023-05-14T20:06:32.206Z,94329.66
2023-05-14T20:09:00.390Z,94319.44
2023-05-14T20:11:27.640Z,94323.81
2023-05-14T20:13:55.302Z,94317.06
2023-05-14T20:16:23.583Z,94328.63
2023-05-14T20:18:54.007Z,94321.56
2023-05-14T20:21:21.247Z,94329.28
2023-05-14T20:23:49.650Z,94325.25
2023-05-14T20:26:16.785Z,94325.72
2023-05-14T20:28:43.732Z,94335.25
2023-05-14T20:31:10.714Z,94329.97
2023-05-14T20:33:37.774Z,94325.34
2023-05-14T20:36:06.823Z,94320.13
2023-05-14T20:38:35.217Z,94319.00
2023-05-14T20:41:04.117Z,94315.34
2023-05-14T20:43:31.397Z,94305.94
2023-05-14T20:46:01.028Z,94306.38
2023-05-14T20:48:27.769Z,94305.84
2023-05-14T20:50:54.467Z,94310.53
2023-05-14T20:53:21.347Z,94305.22
2023-05-14T20:55:48.111Z,94305.75
2023-05-14T20:58:15.096Z,94308.84
2023-05-14T21:00:41.828Z,94307.38
2023-05-14T21:03:08.912Z,94300.28
2023-05-14T21:05:36.324Z,94307.28
2023-05-14T21:08:03.045Z,94307.00
2023-05-14T21:10:30.048Z,94297.47
2023-05-14T21:12:56.771Z,94299.31
2023-05-14T21:15:23.990Z,94300.78
2023-05-14T21:17:51.098Z,94313.09
2023-05-14T21:20:17.902Z,94309.44
2023-05-14T21:22:45.140Z,94309.09
2023-05-14T21:25:11.848Z,94310.41
2023-05-14T21:27:38.832Z,94304.88
2023-05-14T21:30:06.708Z,94303.28
2023-05-14T21:32:33.433Z,94307.72
2023-05-14T21:35:00.373Z,94306.03
2023-05-14T21:37:27.132Z,94297.38
2023-05-14T21:39:54.102Z,94297.31
2023-05-14T21:42:21.395Z,94310.66
2023-05-14T21:44:48.066Z,94292.91
2023-05-14T21:47:16.365Z,94305.69
2023-05-14T21:49:43.653Z,94302.19
2023-05-14T21:52:10.990Z,94301.75
2023-05-14T21:54:37.924Z,94297.22
2023-05-14T21:57:04.834Z,94297.66
2023-05-14T21:59:31.621Z,94298.84
2023-05-14T22:04:27.903Z,94287.97
2023-05-14T22:06:54.680Z,94289.16
2023-05-14T22:09:21.667Z,94280.66
2023-05-14T22:11:48.419Z,94283.53
2023-05-14T22:14:15.158Z,94284.88
2023-05-14T22:16:41.886Z,94283.50
2023-05-14T22:19:08.647Z,94284.28
2023-05-14T22:21:36.030Z,94290.47
2023-05-14T22:24:02.798Z,94274.72
2023-05-14T22:26:29.704Z,94278.78
2023-05-14T22:28:57.704Z,94281.00
2023-05-14T22:31:24.895Z,94284.94
2023-05-14T22:33:52.176Z,94282.72
2023-05-14T22:36:18.879Z,94278.66
2023-05-14T22:38:46.239Z,94287.06
2023-05-14T22:41:12.960Z,94270.56
2023-05-14T22:43:39.756Z,94278.53
2023-05-14T22:46:07.247Z,94273.59
2023-05-14T22:48:34.071Z,94274.41
2023-05-14T22:51:01.130Z,94273.19
2023-05-14T22:53:28.003Z,94282.16
2023-05-14T22:55:54.924Z,94284.28
2023-05-14T22:58:22.143Z,94277.97
2023-05-14T23:00:48.839Z,94293.75
2023-05-14T23:03:16.026Z,94281.03
2023-05-14T23:05:42.754Z,94283.41
2023-05-14T23:08:09.795Z,94285.69
2023-05-14T23:10:37.155Z,94276.59
2023-05-14T23:13:04.264Z,94274.63
2023-05-14T23:15:31.650Z,94273.06
2023-05-14T23:17:58.493Z,94270.31
2023-05-14T23:20:25.340Z,94278.63
2023-05-14T23:22:53.017Z,94271.81
2023-05-14T23:25:20.632Z,94275.47
2023-05-14T23:27:48.149Z,94280.53
2023-05-14T23:30:15.305Z,94278.00
2023-05-14T23:32:42.074Z,94273.09
2023-05-14T23:35:09.672Z,94265.94
2023-05-14T23:37:41.700Z,94272.34
2023-05-14T23:40:09.835Z,94265.44
2023-05-14T23:42:36.912Z,94268.91
2023-05-14T23:45:04.210Z,94266.28
2023-05-14T23:47:31.607Z,94268.16
2023-05-14T23:49:58.544Z,94253.81
2023-05-14T23:52:25.366Z,94261.78
2023-05-14T23:54:52.701Z,94255.72
2023-05-14T23:57:19.438Z,94257.13
2023-05-14T23:59:46.572Z,94257.28
